sensor_id;sensor_type;location;lat;lon;timestamp;temperature;humidity
63317;DHT22;49822;41.468;13.560;2022-11-20T00:01:41;11.50;92.50
63317;DHT22;49822;41.468;13.560;2022-11-20T00:04:10;11.60;92.40
63317;DHT22;49822;41.468;13.560;2022-11-20T00:06:38;11.50;91.30
63317;DHT22;49822;41.468;13.560;2022-11-20T00:09:05;11.50;91.20
63317;DHT22;49822;41.468;13.560;2022-11-20T00:11:33;11.70;91.10
63317;DHT22;49822;41.468;13.560;2022-11-20T00:14:01;11.70;90.70
63317;DHT22;49822;41.468;13.560;2022-11-20T00:16:31;11.70;90.50
63317;DHT22;49822;41.468;13.560;2022-11-20T00:18:59;11.60;90.60
63317;DHT22;49822;41.468;13.560;2022-11-20T00:21:28;11.50;91.20
63317;DHT22;49822;41.468;13.560;2022-11-20T00:23:56;11.50;92.50
63317;DHT22;49822;41.468;13.560;2022-11-20T00:26:25;11.70;92.90
63317;DHT22;49822;41.468;13.560;2022-11-20T00:28:55;11.70;92.50
63317;DHT22;49822;41.468;13.560;2022-11-20T00:31:23;11.60;91.50
63317;DHT22;49822;41.468;13.560;2022-11-20T00:33:51;11.70;92.70
63317;DHT22;49822;41.468;13.560;2022-11-20T00:36:21;11.70;92.50
63317;DHT22;49822;41.468;13.560;2022-11-20T00:38:57;11.50;92.00
63317;DHT22;49822;41.468;13.560;2022-11-20T00:41:26;11.40;93.00
63317;DHT22;49822;41.468;13.560;2022-11-20T00:43:54;11.50;93.00
63317;DHT22;49822;41.468;13.560;2022-11-20T00:46:24;11.30;93.40
63317;DHT22;49822;41.468;13.560;2022-11-20T00:48:52;11.10;94.10
63317;DHT22;49822;41.468;13.560;2022-11-20T00:51:22;11.30;95.30
63317;DHT22;49822;41.468;13.560;2022-11-20T00:53:50;11.40;95.40
63317;DHT22;49822;41.468;13.560;2022-11-20T00:56:19;11.50;95.30
63317;DHT22;49822;41.468;13.560;2022-11-20T00:58:48;11.50;94.80
63317;DHT22;49822;41.468;13.560;2022-11-20T01:01:22;11.50;94.40
63317;DHT22;49822;41.468;13.560;2022-11-20T01:03:53;11.40;94.60
63317;DHT22;49822;41.468;13.560;2022-11-20T01:06:22;11.40;94.90
63317;DHT22;49822;41.468;13.560;2022-11-20T01:08:50;11.50;95.20
63317;DHT22;49822;41.468;13.560;2022-11-20T01:11:23;11.40;94.30
63317;DHT22;49822;41.468;13.560;2022-11-20T01:13:51;11.30;94.30
63317;DHT22;49822;41.468;13.560;2022-11-20T01:16:28;11.30;94.70
63317;DHT22;49822;41.468;13.560;2022-11-20T01:18:58;11.30;94.70
63317;DHT22;49822;41.468;13.560;2022-11-20T01:21:27;11.50;95.10
63317;DHT22;49822;41.468;13.560;2022-11-20T01:23:55;11.50;95.40
63317;DHT22;49822;41.468;13.560;2022-11-20T01:26:28;11.70;95.70
63317;DHT22;49822;41.468;13.560;2022-11-20T01:28:57;11.80;95.40
63317;DHT22;49822;41.468;13.560;2022-11-20T01:31:33;11.90;95.30
63317;DHT22;49822;41.468;13.560;2022-11-20T01:34:03;11.90;95.20
63317;DHT22;49822;41.468;13.560;2022-11-20T01:36:32;11.70;93.70
63317;DHT22;49822;41.468;13.560;2022-11-20T01:39:03;11.40;93.50
63317;DHT22;49822;41.468;13.560;2022-11-20T01:41:33;11.40;94.50
63317;DHT22;49822;41.468;13.560;2022-11-20T01:47:37;11.60;95.60
63317;DHT22;49822;41.468;13.560;2022-11-20T01:50:18;11.70;95.90
63317;DHT22;49822;41.468;13.560;2022-11-20T01:52:55;11.80;95.70
63317;DHT22;49822;41.468;13.560;2022-11-20T01:55:30;11.80;95.60
63317;DHT22;49822;41.468;13.560;2022-11-20T01:58:01;11.70;95.30
63317;DHT22;49822;41.468;13.560;2022-11-20T02:00:29;11.50;94.30
63317;DHT22;49822;41.468;13.560;2022-11-20T02:03:03;11.50;95.90
63317;DHT22;49822;41.468;13.560;2022-11-20T02:05:33;11.50;96.30
63317;DHT22;49822;41.468;13.560;2022-11-20T02:08:03;11.50;96.00
63317;DHT22;49822;41.468;13.560;2022-11-20T02:10:32;11.50;96.20
63317;DHT22;49822;41.468;13.560;2022-11-20T02:13:00;11.50;96.60
63317;DHT22;49822;41.468;13.560;2022-11-20T02:15:48;11.70;96.80
63317;DHT22;49822;41.468;13.560;2022-11-20T02:18:19;11.70;96.60
63317;DHT22;49822;41.468;13.560;2022-11-20T02:20:49;11.70;96.60
63317;DHT22;49822;41.468;13.560;2022-11-20T02:25:58;11.70;96.30
63317;DHT22;49822;41.468;13.560;2022-11-20T02:28:29;11.70;96.80
63317;DHT22;49822;41.468;13.560;2022-11-20T02:30:57;11.80;96.50
63317;DHT22;49822;41.468;13.560;2022-11-20T02:33:24;11.70;96.50
63317;DHT22;49822;41.468;13.560;2022-11-20T02:35:51;11.70;96.30
63317;DHT22;49822;41.468;13.560;2022-11-20T02:38:19;11.70;96.10
63317;DHT22;49822;41.468;13.560;2022-11-20T02:40:47;11.40;95.40
63317;DHT22;49822;41.468;13.560;2022-11-20T02:43:21;11.50;96.40
63317;DHT22;49822;41.468;13.560;2022-11-20T02:45:49;11.50;96.80
63317;DHT22;49822;41.468;13.560;2022-11-20T02:48:19;11.60;96.90
63317;DHT22;49822;41.468;13.560;2022-11-20T02:50:50;11.40;96.30
63317;DHT22;49822;41.468;13.560;2022-11-20T02:53:17;11.30;96.50
63317;DHT22;49822;41.468;13.560;2022-11-20T02:55:46;11.10;97.00
63317;DHT22;49822;41.468;13.560;2022-11-20T02:58:13;11.30;97.20
63317;DHT22;49822;41.468;13.560;2022-11-20T03:00:43;11.40;97.50
63317;DHT22;49822;41.468;13.560;2022-11-20T03:03:12;11.50;97.60
63317;DHT22;49822;41.468;13.560;2022-11-20T03:05:40;11.30;97.00
63317;DHT22;49822;41.468;13.560;2022-11-20T03:08:07;11.40;97.10
63317;DHT22;49822;41.468;13.560;2022-11-20T03:10:35;11.50;97.20
63317;DHT22;49822;41.468;13.560;2022-11-20T03:13:02;11.30;96.30
63317;DHT22;49822;41.468;13.560;2022-11-20T03:15:30;11.10;96.20
63317;DHT22;49822;41.468;13.560;2022-11-20T03:18:03;11.10;96.70
63317;DHT22;49822;41.468;13.560;2022-11-20T03:20:33;11.10;96.80
63317;DHT22;49822;41.468;13.560;2022-11-20T03:23:01;11.10;96.80
63317;DHT22;49822;41.468;13.560;2022-11-20T03:25:29;11.10;96.90
63317;DHT22;49822;41.468;13.560;2022-11-20T03:27:57;11.10;97.20
63317;DHT22;49822;41.468;13.560;2022-11-20T03:30:25;11.30;97.20
63317;DHT22;49822;41.468;13.560;2022-11-20T03:32:56;11.30;97.30
63317;DHT22;49822;41.468;13.560;2022-11-20T03:35:24;11.40;97.10
63317;DHT22;49822;41.468;13.560;2022-11-20T03:37:52;11.50;96.90
63317;DHT22;49822;41.468;13.560;2022-11-20T03:40:20;11.50;96.70
63317;DHT22;49822;41.468;13.560;2022-11-20T03:42:47;11.40;96.40
63317;DHT22;49822;41.468;13.560;2022-11-20T03:45:16;11.40;96.50
63317;DHT22;49822;41.468;13.560;2022-11-20T03:47:44;11.40;96.50
63317;DHT22;49822;41.468;13.560;2022-11-20T03:50:12;11.50;96.60
63317;DHT22;49822;41.468;13.560;2022-11-20T03:52:41;11.50;96.50
63317;DHT22;49822;41.468;13.560;2022-11-20T03:55:08;11.40;95.90
63317;DHT22;49822;41.468;13.560;2022-11-20T03:57:37;11.30;96.00
63317;DHT22;49822;41.468;13.560;2022-11-20T04:00:05;11.30;96.10
63317;DHT22;49822;41.468;13.560;2022-11-20T04:02:32;11.20;95.80
63317;DHT22;49822;41.468;13.560;2022-11-20T04:05:00;11.10;96.30
63317;DHT22;49822;41.468;13.560;2022-11-20T04:07:28;11.30;97.10
63317;DHT22;49822;41.468;13.560;2022-11-20T04:09:56;11.40;97.20
63317;DHT22;49822;41.468;13.560;2022-11-20T04:12:23;11.50;97.20
63317;DHT22;49822;41.468;13.560;2022-11-20T04:14:51;11.50;97.30
63317;DHT22;49822;41.468;13.560;2022-11-20T04:17:18;11.60;97.00
63317;DHT22;49822;41.468;13.560;2022-11-20T04:19:46;11.50;96.60
63317;DHT22;49822;41.468;13.560;2022-11-20T04:22:13;11.50;96.50
63317;DHT22;49822;41.468;13.560;2022-11-20T04:24:41;11.40;96.30
63317;DHT22;49822;41.468;13.560;2022-11-20T04:27:08;11.30;96.40
63317;DHT22;49822;41.468;13.560;2022-11-20T04:29:36;11.30;96.60
63317;DHT22;49822;41.468;13.560;2022-11-20T04:32:03;11.00;95.80
63317;DHT22;49822;41.468;13.560;2022-11-20T04:34:30;10.90;96.50
63317;DHT22;49822;41.468;13.560;2022-11-20T04:36:58;10.90;97.20
63317;DHT22;49822;41.468;13.560;2022-11-20T04:39:26;11.00;97.70
63317;DHT22;49822;41.468;13.560;2022-11-20T04:41:54;11.10;98.00
63317;DHT22;49822;41.468;13.560;2022-11-20T04:44:41;11.20;98.00
63317;DHT22;49822;41.468;13.560;2022-11-20T04:47:08;11.20;97.70
63317;DHT22;49822;41.468;13.560;2022-11-20T04:49:36;11.10;97.50
63317;DHT22;49822;41.468;13.560;2022-11-20T04:52:03;11.10;97.60
63317;DHT22;49822;41.468;13.560;2022-11-20T04:54:31;11.10;97.70
63317;DHT22;49822;41.468;13.560;2022-11-20T04:56:58;11.10;97.80
63317;DHT22;49822;41.468;13.560;2022-11-20T04:59:26;11.10;98.00
63317;DHT22;49822;41.468;13.560;2022-11-20T05:01:53;11.10;97.20
63317;DHT22;49822;41.468;13.560;2022-11-20T05:04:21;10.80;97.00
63317;DHT22;49822;41.468;13.560;2022-11-20T05:06:49;10.80;97.40
63317;DHT22;49822;41.468;13.560;2022-11-20T05:09:17;10.90;98.00
63317;DHT22;49822;41.468;13.560;2022-11-20T05:11:45;11.00;98.20
63317;DHT22;49822;41.468;13.560;2022-11-20T05:14:17;11.10;98.30
63317;DHT22;49822;41.468;13.560;2022-11-20T05:16:44;11.20;98.20
63317;DHT22;49822;41.468;13.560;2022-11-20T05:19:12;11.10;97.50
63317;DHT22;49822;41.468;13.560;2022-11-20T05:21:39;10.80;97.20
63317;DHT22;49822;41.468;13.560;2022-11-20T05:24:07;10.70;97.70
63317;DHT22;49822;41.468;13.560;2022-11-20T05:26:34;10.60;98.30
63317;DHT22;49822;41.468;13.560;2022-11-20T05:29:02;10.50;98.50
63317;DHT22;49822;41.468;13.560;2022-11-20T05:31:29;10.60;98.70
63317;DHT22;49822;41.468;13.560;2022-11-20T05:33:57;10.50;98.70
63317;DHT22;49822;41.468;13.560;2022-11-20T05:36:25;10.50;98.80
63317;DHT22;49822;41.468;13.560;2022-11-20T05:38:52;10.50;98.90
63317;DHT22;49822;41.468;13.560;2022-11-20T05:41:27;10.50;98.90
63317;DHT22;49822;41.468;13.560;2022-11-20T05:43:56;10.60;99.00
63317;DHT22;49822;41.468;13.560;2022-11-20T05:46:25;10.60;99.10
63317;DHT22;49822;41.468;13.560;2022-11-20T05:48:56;10.70;99.00
63317;DHT22;49822;41.468;13.560;2022-11-20T05:51:25;10.70;98.80
63317;DHT22;49822;41.468;13.560;2022-11-20T05:53:55;10.70;98.50
63317;DHT22;49822;41.468;13.560;2022-11-20T05:56:23;10.60;98.10
63317;DHT22;49822;41.468;13.560;2022-11-20T05:58:50;10.50;97.60
63317;DHT22;49822;41.468;13.560;2022-11-20T06:01:23;10.60;97.90
63317;DHT22;49822;41.468;13.560;2022-11-20T06:03:53;10.70;98.00
63317;DHT22;49822;41.468;13.560;2022-11-20T06:06:21;10.70;97.90
63317;DHT22;49822;41.468;13.560;2022-11-20T06:08:49;10.80;97.80
63317;DHT22;49822;41.468;13.560;2022-11-20T06:11:17;10.60;97.50
63317;DHT22;49822;41.468;13.560;2022-11-20T06:13:45;10.70;97.70
63317;DHT22;49822;41.468;13.560;2022-11-20T06:16:16;10.70;97.60
63317;DHT22;49822;41.468;13.560;2022-11-20T06:18:45;10.40;96.50
63317;DHT22;49822;41.468;13.560;2022-11-20T06:21:18;10.30;96.80
63317;DHT22;49822;41.468;13.560;2022-11-20T06:23:46;10.30;97.10
63317;DHT22;49822;41.468;13.560;2022-11-20T06:26:19;10.20;97.30
63317;DHT22;49822;41.468;13.560;2022-11-20T06:28:47;10.30;97.70
63317;DHT22;49822;41.468;13.560;2022-11-20T06:31:16;10.30;97.70
63317;DHT22;49822;41.468;13.560;2022-11-20T06:33:44;10.50;98.20
63317;DHT22;49822;41.468;13.560;2022-11-20T06:36:14;10.60;98.00
63317;DHT22;49822;41.468;13.560;2022-11-20T06:38:42;10.60;97.60
63317;DHT22;49822;41.468;13.560;2022-11-20T06:41:18;10.70;97.70
63317;DHT22;49822;41.468;13.560;2022-11-20T06:43:46;10.70;97.60
63317;DHT22;49822;41.468;13.560;2022-11-20T06:46:15;10.80;97.70
63317;DHT22;49822;41.468;13.560;2022-11-20T06:48:50;10.70;96.70
63317;DHT22;49822;41.468;13.560;2022-11-20T06:51:17;10.40;96.50
63317;DHT22;49822;41.468;13.560;2022-11-20T06:53:45;10.50;96.90
63317;DHT22;49822;41.468;13.560;2022-11-20T06:56:12;10.60;97.10
63317;DHT22;49822;41.468;13.560;2022-11-20T06:58:40;10.70;97.10
63317;DHT22;49822;41.468;13.560;2022-11-20T07:01:09;10.80;97.00
63317;DHT22;49822;41.468;13.560;2022-11-20T07:03:38;10.80;96.70
63317;DHT22;49822;41.468;13.560;2022-11-20T07:06:06;10.70;96.20
63317;DHT22;49822;41.468;13.560;2022-11-20T07:08:34;10.40;95.00
63317;DHT22;49822;41.468;13.560;2022-11-20T07:11:04;10.00;95.20
63317;DHT22;49822;41.468;13.560;2022-11-20T07:13:32;10.00;96.00
63317;DHT22;49822;41.468;13.560;2022-11-20T07:16:06;10.20;96.90
63317;DHT22;49822;41.468;13.560;2022-11-20T07:18:35;10.40;97.30
63317;DHT22;49822;41.468;13.560;2022-11-20T07:21:04;10.50;97.30
63317;DHT22;49822;41.468;13.560;2022-11-20T07:23:32;10.60;97.20
63317;DHT22;49822;41.468;13.560;2022-11-20T07:26:07;10.80;97.20
63317;DHT22;49822;41.468;13.560;2022-11-20T07:28:35;10.90;96.90
63317;DHT22;49822;41.468;13.560;2022-11-20T07:31:03;10.90;96.30
63317;DHT22;49822;41.468;13.560;2022-11-20T07:33:32;10.90;95.90
63317;DHT22;49822;41.468;13.560;2022-11-20T07:36:00;10.80;94.90
63317;DHT22;49822;41.468;13.560;2022-11-20T07:38:28;10.70;95.40
63317;DHT22;49822;41.468;13.560;2022-11-20T07:40:57;10.70;95.70
63317;DHT22;49822;41.468;13.560;2022-11-20T07:43:28;10.70;96.00
63317;DHT22;49822;41.468;13.560;2022-11-20T07:45:57;10.90;96.50
63317;DHT22;49822;41.468;13.560;2022-11-20T07:48:25;11.10;96.50
63317;DHT22;49822;41.468;13.560;2022-11-20T07:50:54;11.30;96.40
63317;DHT22;49822;41.468;13.560;2022-11-20T07:53:23;11.70;96.30
63317;DHT22;49822;41.468;13.560;2022-11-20T07:55:50;11.90;94.80
63317;DHT22;49822;41.468;13.560;2022-11-20T07:58:21;12.00;93.70
63317;DHT22;49822;41.468;13.560;2022-11-20T08:00:50;11.90;91.70
63317;DHT22;49822;41.468;13.560;2022-11-20T08:03:20;11.70;91.90
63317;DHT22;49822;41.468;13.560;2022-11-20T08:05:51;11.70;92.90
63317;DHT22;49822;41.468;13.560;2022-11-20T08:08:19;12.00;94.00
63317;DHT22;49822;41.468;13.560;2022-11-20T08:10:48;12.50;94.00
63317;DHT22;49822;41.468;13.560;2022-11-20T08:13:17;12.70;92.20
63317;DHT22;49822;41.468;13.560;2022-11-20T08:16:08;12.80;90.20
63317;DHT22;49822;41.468;13.560;2022-11-20T08:18:39;12.90;89.30
63317;DHT22;49822;41.468;13.560;2022-11-20T08:21:07;13.10;89.90
63317;DHT22;49822;41.468;13.560;2022-11-20T08:23:34;13.30;89.40
63317;DHT22;49822;41.468;13.560;2022-11-20T08:26:13;13.20;88.00
63317;DHT22;49822;41.468;13.560;2022-11-20T08:28:40;13.10;89.00
63317;DHT22;49822;41.468;13.560;2022-11-20T08:31:09;12.90;89.50
63317;DHT22;49822;41.468;13.560;2022-11-20T08:33:38;12.60;90.00
63317;DHT22;49822;41.468;13.560;2022-11-20T08:36:06;12.50;91.20
63317;DHT22;49822;41.468;13.560;2022-11-20T08:38:34;12.20;91.60
63317;DHT22;49822;41.468;13.560;2022-11-20T08:41:03;12.10;93.00
63317;DHT22;49822;41.468;13.560;2022-11-20T08:43:56;11.90;92.70
63317;DHT22;49822;41.468;13.560;2022-11-20T08:46:26;11.70;93.00
63317;DHT22;49822;41.468;13.560;2022-11-20T08:48:54;11.50;93.60
63317;DHT22;49822;41.468;13.560;2022-11-20T08:51:22;11.50;94.50
63317;DHT22;49822;41.468;13.560;2022-11-20T08:53:49;11.70;95.20
63317;DHT22;49822;41.468;13.560;2022-11-20T08:56:24;11.80;95.20
63317;DHT22;49822;41.468;13.560;2022-11-20T08:58:53;11.90;95.20
63317;DHT22;49822;41.468;13.560;2022-11-20T09:01:43;12.10;95.00
63317;DHT22;49822;41.468;13.560;2022-11-20T09:04:11;12.10;94.60
63317;DHT22;49822;41.468;13.560;2022-11-20T09:06:41;12.20;94.30
63317;DHT22;49822;41.468;13.560;2022-11-20T09:09:08;12.20;94.60
63317;DHT22;49822;41.468;13.560;2022-11-20T09:11:35;12.20;94.50
63317;DHT22;49822;41.468;13.560;2022-11-20T09:14:04;12.20;94.40
63317;DHT22;49822;41.468;13.560;2022-11-20T09:16:32;12.20;94.30
63317;DHT22;49822;41.468;13.560;2022-11-20T09:18:59;12.20;94.00
63317;DHT22;49822;41.468;13.560;2022-11-20T09:21:47;12.30;94.00
63317;DHT22;49822;41.468;13.560;2022-11-20T09:24:14;12.50;93.60
63317;DHT22;49822;41.468;13.560;2022-11-20T09:26:42;12.40;92.30
63317;DHT22;49822;41.468;13.560;2022-11-20T09:29:09;12.50;92.40
63317;DHT22;49822;41.468;13.560;2022-11-20T09:31:37;12.60;92.20
63317;DHT22;49822;41.468;13.560;2022-11-20T09:34:05;12.70;92.30
63317;DHT22;49822;41.468;13.560;2022-11-20T09:36:33;12.70;91.60
63317;DHT22;49822;41.468;13.560;2022-11-20T09:39:00;12.60;91.60
63317;DHT22;49822;41.468;13.560;2022-11-20T09:47:47;12.10;91.60
63317;DHT22;49822;41.468;13.560;2022-11-20T09:56:30;12.60;91.70
63317;DHT22;49822;41.468;13.560;2022-11-20T09:59:06;12.90;91.50
63317;DHT22;49822;41.468;13.560;2022-11-20T10:01:38;12.80;89.80
63317;DHT22;49822;41.468;13.560;2022-11-20T10:04:16;12.80;90.80
63317;DHT22;49822;41.468;13.560;2022-11-20T10:08:02;13.10;89.80
63317;DHT22;49822;41.468;13.560;2022-11-20T10:10:16;13.00;88.50
63317;DHT22;49822;41.468;13.560;2022-11-20T10:21:53;15.00;83.80
63317;DHT22;49822;41.468;13.560;2022-11-20T10:24:51;16.80;76.20
63317;DHT22;49822;41.468;13.560;2022-11-20T10:27:54;17.90;71.20
63317;DHT22;49822;41.468;13.560;2022-11-20T10:30:27;18.90;68.20
63317;DHT22;49822;41.468;13.560;2022-11-20T10:38:44;17.60;70.60
63317;DHT22;49822;41.468;13.560;2022-11-20T10:41:22;16.90;71.90
63317;DHT22;49822;41.468;13.560;2022-11-20T10:44:20;16.30;74.60
63317;DHT22;49822;41.468;13.560;2022-11-20T10:47:17;15.60;76.90
63317;DHT22;49822;41.468;13.560;2022-11-20T10:49:51;15.10;79.30
63317;DHT22;49822;41.468;13.560;2022-11-20T10:52:42;14.90;80.00
63317;DHT22;49822;41.468;13.560;2022-11-20T10:55:50;14.90;81.10
63317;DHT22;49822;41.468;13.560;2022-11-20T11:01:15;14.50;83.70
63317;DHT22;49822;41.468;13.560;2022-11-20T11:03:44;14.50;83.00
63317;DHT22;49822;41.468;13.560;2022-11-20T11:09:32;14.30;82.70
63317;DHT22;49822;41.468;13.560;2022-11-20T11:12:11;14.00;84.80
63317;DHT22;49822;41.468;13.560;2022-11-20T11:14:51;13.70;84.90
63317;DHT22;49822;41.468;13.560;2022-11-20T11:17:29;13.60;85.40
63317;DHT22;49822;41.468;13.560;2022-11-20T11:20:20;13.80;85.80
63317;DHT22;49822;41.468;13.560;2022-11-20T11:25:23;13.90;86.30
63317;DHT22;49822;41.468;13.560;2022-11-20T11:27:52;13.90;86.80
63317;DHT22;49822;41.468;13.560;2022-11-20T11:30:25;14.00;86.40
63317;DHT22;49822;41.468;13.560;2022-11-20T11:33:05;13.90;86.60
63317;DHT22;49822;41.468;13.560;2022-11-20T11:35:38;13.90;86.20
63317;DHT22;49822;41.468;13.560;2022-11-20T11:38:10;13.90;87.30
63317;DHT22;49822;41.468;13.560;2022-11-20T11:40:40;14.00;87.80
63317;DHT22;49822;41.468;13.560;2022-11-20T11:43:20;14.10;87.30
63317;DHT22;49822;41.468;13.560;2022-11-20T11:46:28;14.10;85.50
63317;DHT22;49822;41.468;13.560;2022-11-20T11:52:27;14.20;86.50
63317;DHT22;49822;41.468;13.560;2022-11-20T11:57:11;14.40;85.90
63317;DHT22;49822;41.468;13.560;2022-11-20T12:05:18;14.70;83.70
63317;DHT22;49822;41.468;13.560;2022-11-20T12:07:59;15.00;82.30
63317;DHT22;49822;41.468;13.560;2022-11-20T12:16:15;15.80;77.10
63317;DHT22;49822;41.468;13.560;2022-11-20T12:18:50;16.00;78.60
63317;DHT22;49822;41.468;13.560;2022-11-20T12:50:15;16.10;77.80
63317;DHT22;49822;41.468;13.560;2022-11-20T13:00:47;15.60;79.30
63317;DHT22;49822;41.468;13.560;2022-11-20T13:06:17;15.60;80.50
63317;DHT22;49822;41.468;13.560;2022-11-20T13:08:52;15.60;79.00
63317;DHT22;49822;41.468;13.560;2022-11-20T13:19:18;15.30;80.70
63317;DHT22;49822;41.468;13.560;2022-11-20T13:21:48;15.40;81.20
63317;DHT22;49822;41.468;13.560;2022-11-20T13:29:45;15.50;80.60
63317;DHT22;49822;41.468;13.560;2022-11-20T13:32:19;15.80;80.90
63317;DHT22;49822;41.468;13.560;2022-11-20T13:35:02;16.20;78.90
63317;DHT22;49822;41.468;13.560;2022-11-20T13:37:38;16.60;78.10
63317;DHT22;49822;41.468;13.560;2022-11-20T13:40:13;17.00;75.90
63317;DHT22;49822;41.468;13.560;2022-11-20T13:43:07;17.50;72.80
63317;DHT22;49822;41.468;13.560;2022-11-20T13:45:37;17.80;72.60
63317;DHT22;49822;41.468;13.560;2022-11-20T13:48:41;17.90;73.20
63317;DHT22;49822;41.468;13.560;2022-11-20T14:02:20;20.30;62.70
63317;DHT22;49822;41.468;13.560;2022-11-20T14:04:52;20.80;62.60
63317;DHT22;49822;41.468;13.560;2022-11-20T14:07:23;21.20;60.50
63317;DHT22;49822;41.468;13.560;2022-11-20T14:09:56;21.70;59.60
63317;DHT22;49822;41.468;13.560;2022-11-20T14:12:32;21.30;59.20
63317;DHT22;49822;41.468;13.560;2022-11-20T14:14:59;20.30;62.30
63317;DHT22;49822;41.468;13.560;2022-11-20T14:17:35;20.10;63.80
63317;DHT22;49822;41.468;13.560;2022-11-20T14:20:13;20.30;62.60
63317;DHT22;49822;41.468;13.560;2022-11-20T14:22:49;20.40;60.80
63317;DHT22;49822;41.468;13.560;2022-11-20T14:27:55;20.70;61.80
63317;DHT22;49822;41.468;13.560;2022-11-20T14:30:28;21.40;60.70
63317;DHT22;49822;41.468;13.560;2022-11-20T14:33:00;21.60;58.10
63317;DHT22;49822;41.468;13.560;2022-11-20T14:35:35;21.80;58.60
63317;DHT22;49822;41.468;13.560;2022-11-20T14:38:04;22.10;57.10
63317;DHT22;49822;41.468;13.560;2022-11-20T14:40:36;22.00;56.40
63317;DHT22;49822;41.468;13.560;2022-11-20T14:43:24;21.20;57.00
63317;DHT22;49822;41.468;13.560;2022-11-20T14:46:04;20.30;58.50
63317;DHT22;49822;41.468;13.560;2022-11-20T14:48:46;18.70;62.60
63317;DHT22;49822;41.468;13.560;2022-11-20T14:51:28;17.20;67.80
63317;DHT22;49822;41.468;13.560;2022-11-20T14:54:07;16.00;73.40
63317;DHT22;49822;41.468;13.560;2022-11-20T14:56:34;15.30;76.20
63317;DHT22;49822;41.468;13.560;2022-11-20T14:59:02;15.00;79.00
63317;DHT22;49822;41.468;13.560;2022-11-20T15:02:12;15.00;78.80
63317;DHT22;49822;41.468;13.560;2022-11-20T15:04:32;15.00;80.00
63317;DHT22;49822;41.468;13.560;2022-11-20T15:07:00;15.00;81.20
63317;DHT22;49822;41.468;13.560;2022-11-20T15:09:27;15.00;81.20
63317;DHT22;49822;41.468;13.560;2022-11-20T15:12:00;14.40;81.00
63317;DHT22;49822;41.468;13.560;2022-11-20T15:14:30;13.80;84.00
63317;DHT22;49822;41.468;13.560;2022-11-20T15:16:59;13.60;84.80
63317;DHT22;49822;41.468;13.560;2022-11-20T15:19:27;13.40;85.90
63317;DHT22;49822;41.468;13.560;2022-11-20T15:21:54;13.40;87.90
63317;DHT22;49822;41.468;13.560;2022-11-20T15:24:21;13.60;88.70
63317;DHT22;49822;41.468;13.560;2022-11-20T15:26:49;13.70;86.80
63317;DHT22;49822;41.468;13.560;2022-11-20T15:29:17;13.60;84.80
63317;DHT22;49822;41.468;13.560;2022-11-20T15:31:47;13.50;84.40
63317;DHT22;49822;41.468;13.560;2022-11-20T15:34:15;13.50;83.20
63317;DHT22;49822;41.468;13.560;2022-11-20T15:36:43;13.40;82.30
63317;DHT22;49822;41.468;13.560;2022-11-20T15:39:11;13.50;83.20
63317;DHT22;49822;41.468;13.560;2022-11-20T15:41:39;13.50;82.20
63317;DHT22;49822;41.468;13.560;2022-11-20T15:44:06;13.50;82.10
63317;DHT22;49822;41.468;13.560;2022-11-20T15:46:37;13.50;81.90
63317;DHT22;49822;41.468;13.560;2022-11-20T15:49:13;13.50;81.80
63317;DHT22;49822;41.468;13.560;2022-11-20T15:51:43;13.30;83.00
63317;DHT22;49822;41.468;13.560;2022-11-20T15:54:14;13.10;85.50
63317;DHT22;49822;41.468;13.560;2022-11-20T15:56:42;13.00;87.20
63317;DHT22;49822;41.468;13.560;2022-11-20T15:59:09;12.90;86.80
63317;DHT22;49822;41.468;13.560;2022-11-20T16:01:37;12.70;86.20
63317;DHT22;49822;41.468;13.560;2022-11-20T16:04:09;12.30;87.10
63317;DHT22;49822;41.468;13.560;2022-11-20T16:06:36;12.00;89.10
63317;DHT22;49822;41.468;13.560;2022-11-20T16:09:04;12.00;88.70
63317;DHT22;49822;41.468;13.560;2022-11-20T16:11:32;11.90;89.20
63317;DHT22;49822;41.468;13.560;2022-11-20T16:13:59;12.00;88.60
63317;DHT22;49822;41.468;13.560;2022-11-20T16:16:46;12.10;87.80
63317;DHT22;49822;41.468;13.560;2022-11-20T16:19:14;12.30;84.10
63317;DHT22;49822;41.468;13.560;2022-11-20T16:21:43;12.50;83.50
63317;DHT22;49822;41.468;13.560;2022-11-20T16:24:12;12.50;83.10
63317;DHT22;49822;41.468;13.560;2022-11-20T16:26:41;12.50;83.70
63317;DHT22;49822;41.468;13.560;2022-11-20T16:29:09;12.40;84.30
63317;DHT22;49822;41.468;13.560;2022-11-20T16:31:37;12.20;84.80
63317;DHT22;49822;41.468;13.560;2022-11-20T16:34:06;12.00;87.00
63317;DHT22;49822;41.468;13.560;2022-11-20T16:36:42;11.90;88.00
63317;DHT22;49822;41.468;13.560;2022-11-20T16:39:12;11.60;86.60
63317;DHT22;49822;41.468;13.560;2022-11-20T16:41:43;11.30;90.30
63317;DHT22;49822;41.468;13.560;2022-11-20T16:44:11;11.40;90.80
63317;DHT22;49822;41.468;13.560;2022-11-20T16:46:39;11.50;91.00
63317;DHT22;49822;41.468;13.560;2022-11-20T16:49:11;11.30;90.10
63317;DHT22;49822;41.468;13.560;2022-11-20T16:51:39;11.30;90.70
63317;DHT22;49822;41.468;13.560;2022-11-20T16:54:08;11.10;90.90
63317;DHT22;49822;41.468;13.560;2022-11-20T16:56:36;10.80;89.60
63317;DHT22;49822;41.468;13.560;2022-11-20T16:59:03;10.80;91.20
63317;DHT22;49822;41.468;13.560;2022-11-20T17:01:31;10.90;90.90
63317;DHT22;49822;41.468;13.560;2022-11-20T17:04:04;11.10;90.10
63317;DHT22;49822;41.468;13.560;2022-11-20T17:06:36;10.90;87.80
63317;DHT22;49822;41.468;13.560;2022-11-20T17:09:04;10.90;90.00
63317;DHT22;49822;41.468;13.560;2022-11-20T17:11:31;10.80;88.50
63317;DHT22;49822;41.468;13.560;2022-11-20T17:14:00;10.60;88.60
63317;DHT22;49822;41.468;13.560;2022-11-20T17:16:34;10.60;89.60
63317;DHT22;49822;41.468;13.560;2022-11-20T17:19:02;10.80;90.60
63317;DHT22;49822;41.468;13.560;2022-11-20T17:21:32;10.60;88.20
63317;DHT22;49822;41.468;13.560;2022-11-20T17:24:01;10.40;89.80
63317;DHT22;49822;41.468;13.560;2022-11-20T17:26:29;10.60;90.90
63317;DHT22;49822;41.468;13.560;2022-11-20T17:29:02;10.80;91.70
63317;DHT22;49822;41.468;13.560;2022-11-20T17:31:32;10.90;90.90
63317;DHT22;49822;41.468;13.560;2022-11-20T17:34:00;11.00;90.60
63317;DHT22;49822;41.468;13.560;2022-11-20T17:36:29;10.90;90.20
63317;DHT22;49822;41.468;13.560;2022-11-20T17:38:57;11.00;90.70
63317;DHT22;49822;41.468;13.560;2022-11-20T17:41:26;11.10;90.60
63317;DHT22;49822;41.468;13.560;2022-11-20T17:43:56;11.10;88.70
63317;DHT22;49822;41.468;13.560;2022-11-20T17:46:26;10.50;85.90